createdAt,value
2018-07-28T00:01:36.720Z,99.90
2018-07-28T00:04:05.180Z,99.90
2018-07-28T00:06:33.607Z,99.90
2018-07-28T00:09:02.124Z,99.90
2018-07-28T00:11:30.636Z,99.90
2018-07-28T00:13:59.283Z,99.90
2018-07-28T00:16:27.842Z,99.90
2018-07-28T00:18:56.296Z,99.90
2018-07-28T00:21:24.772Z,99.90
2018-07-28T00:23:53.191Z,99.90
2018-07-28T00:26:21.647Z,99.90
2018-07-28T00:28:50.637Z,99.90
2018-07-28T00:31:19.089Z,99.90
2018-07-28T00:33:47.927Z,99.90
2018-07-28T00:36:16.342Z,99.90
2018-07-28T00:38:44.788Z,99.90
2018-07-28T00:41:13.236Z,99.90
2018-07-28T00:43:41.651Z,99.90
2018-07-28T00:46:10.119Z,99.90
2018-07-28T00:48:38.544Z,99.90
2018-07-28T00:51:06.993Z,99.90
2018-07-28T00:53:35.451Z,99.90
2018-07-28T00:56:03.903Z,99.90
2018-07-28T00:58:32.343Z,99.90
2018-07-28T01:01:00.795Z,99.90
2018-07-28T01:03:29.276Z,99.90
2018-07-28T01:05:57.722Z,99.90
2018-07-28T01:08:26.167Z,99.90
2018-07-28T01:10:54.583Z,99.90
2018-07-28T01:13:23.029Z,99.90
2018-07-28T01:15:51.481Z,99.90
2018-07-28T01:18:19.934Z,99.90
2018-07-28T01:20:48.398Z,99.90
2018-07-28T01:23:16.862Z,99.90
2018-07-28T01:25:45.271Z,99.90
2018-07-28T01:28:14.260Z,99.90
2018-07-28T01:30:42.748Z,99.90
2018-07-28T01:33:11.242Z,99.90
2018-07-28T01:35:39.691Z,99.90
2018-07-28T01:38:08.185Z,99.90
2018-07-28T01:40:36.731Z,99.90
2018-07-28T01:43:05.182Z,99.90
2018-07-28T01:45:33.651Z,99.90
2018-07-28T01:48:02.174Z,99.90
2018-07-28T01:50:30.622Z,99.90
2018-07-28T01:52:59.067Z,99.90
2018-07-28T01:55:27.505Z,99.90
2018-07-28T01:57:55.986Z,99.90
2018-07-28T02:00:24.484Z,99.90
2018-07-28T02:02:52.954Z,99.90
2018-07-28T02:05:21.529Z,99.90
2018-07-28T02:07:50.055Z,99.90
2018-07-28T02:10:18.499Z,99.90
2018-07-28T02:12:46.943Z,99.90
2018-07-28T02:15:15.381Z,99.90
2018-07-28T02:17:43.869Z,99.90
2018-07-28T02:20:12.322Z,99.90
2018-07-28T02:22:40.833Z,99.90
2018-07-28T02:25:10.457Z,99.90
2018-07-28T02:27:38.932Z,99.90
2018-07-28T02:30:07.900Z,99.90
2018-07-28T02:32:36.799Z,99.90
2018-07-28T02:35:06.519Z,99.90
2018-07-28T02:37:35.099Z,99.90
2018-07-28T02:40:03.624Z,99.90
2018-07-28T02:42:32.073Z,99.90
2018-07-28T02:45:00.516Z,99.90
2018-07-28T02:47:28.955Z,99.90
2018-07-28T02:49:57.383Z,99.90
2018-07-28T02:52:25.846Z,99.90
2018-07-28T02:54:54.296Z,99.90
2018-07-28T02:57:22.734Z,99.90
2018-07-28T02:59:51.494Z,99.90
2018-07-28T03:02:20.007Z,99.90
2018-07-28T03:04:48.444Z,99.90
2018-07-28T03:07:16.897Z,99.90
2018-07-28T03:09:45.320Z,99.90
2018-07-28T03:12:13.796Z,99.90
2018-07-28T03:14:42.223Z,99.90
2018-07-28T03:17:10.676Z,99.90
2018-07-28T03:19:39.090Z,99.90
2018-07-28T03:22:08.036Z,99.90
2018-07-28T03:24:36.480Z,99.90
2018-07-28T03:27:05.689Z,99.90
2018-07-28T03:29:34.511Z,99.90
2018-07-28T03:32:02.944Z,99.90
2018-07-28T03:34:31.396Z,99.90
2018-07-28T03:36:59.805Z,99.90
2018-07-28T03:39:28.254Z,99.90
2018-07-28T03:41:56.677Z,99.90
2018-07-28T03:44:25.140Z,99.90
2018-07-28T03:46:53.744Z,99.90
2018-07-28T03:49:22.286Z,99.90
2018-07-28T03:51:50.894Z,99.90
2018-07-28T03:54:19.347Z,99.90
2018-07-28T03:56:47.768Z,99.90
2018-07-28T03:59:16.248Z,99.90
2018-07-28T04:01:44.731Z,99.90
2018-07-28T04:04:13.240Z,99.90
2018-07-28T04:06:41.638Z,99.90
2018-07-28T04:09:10.565Z,99.90
2018-07-28T04:11:39.025Z,99.90
2018-07-28T04:14:07.453Z,99.90
2018-07-28T04:19:04.037Z,99.90
2018-07-28T04:21:32.503Z,99.90
2018-07-28T04:24:00.954Z,99.90
2018-07-28T04:26:29.431Z,99.90
2018-07-28T04:28:57.851Z,99.90
2018-07-28T04:31:26.386Z,99.90
2018-07-28T04:33:54.810Z,99.90
2018-07-28T04:36:23.248Z,99.90
2018-07-28T04:38:51.668Z,99.90
2018-07-28T04:41:20.106Z,99.90
2018-07-28T04:43:48.583Z,99.90
2018-07-28T04:46:17.014Z,99.90
2018-07-28T04:48:45.467Z,99.90
2018-07-28T04:53:42.043Z,99.90
2018-07-28T04:56:10.472Z,99.90
2018-07-28T04:58:38.930Z,99.90
2018-07-28T05:01:07.497Z,99.90
2018-07-28T05:03:35.936Z,99.90
2018-07-28T05:06:04.360Z,99.90
2018-07-28T05:08:32.847Z,99.90
2018-07-28T05:11:01.305Z,99.90
2018-07-28T05:13:29.826Z,99.90
2018-07-28T05:15:58.318Z,99.90
2018-07-28T05:18:26.732Z,99.90
2018-07-28T05:20:55.186Z,99.90
2018-07-28T05:23:23.628Z,99.90
2018-07-28T05:25:52.095Z,99.90
2018-07-28T05:28:20.579Z,99.90
2018-07-28T05:30:49.020Z,99.90
2018-07-28T05:33:17.467Z,99.90
2018-07-28T05:35:45.993Z,99.90
2018-07-28T05:38:14.474Z,99.90
2018-07-28T05:40:42.925Z,99.90
2018-07-28T05:43:11.461Z,99.90
2018-07-28T05:45:39.896Z,99.90
2018-07-28T05:48:08.456Z,99.90
2018-07-28T05:50:36.925Z,99.90
2018-07-28T05:53:05.776Z,99.90
2018-07-28T05:55:34.313Z,99.90
2018-07-28T05:58:02.736Z,99.90
2018-07-28T06:00:31.520Z,99.90
2018-07-28T06:03:04.167Z,99.90
2018-07-28T06:05:33.463Z,99.90
2018-07-28T06:08:01.919Z,99.90
2018-07-28T06:10:30.599Z,99.90
2018-07-28T06:12:59.050Z,99.90
2018-07-28T06:15:27.495Z,99.90
2018-07-28T06:17:56.320Z,99.90
2018-07-28T06:20:25.084Z,99.90
2018-07-28T06:22:53.706Z,99.90
2018-07-28T06:25:22.191Z,99.90
2018-07-28T06:27:50.734Z,99.90
2018-07-28T06:30:19.191Z,99.90
2018-07-28T06:32:47.615Z,99.90
2018-07-28T06:35:16.052Z,99.90
2018-07-28T06:37:44.541Z,99.90
2018-07-28T06:40:13.043Z,99.90
2018-07-28T06:42:41.496Z,99.90
2018-07-28T06:45:09.915Z,99.90
2018-07-28T06:47:38.347Z,99.90
2018-07-28T06:50:06.798Z,99.90
2018-07-28T06:55:03.429Z,99.90
2018-07-28T06:57:31.871Z,99.90
2018-07-28T07:00:00.362Z,99.90
2018-07-28T07:02:28.928Z,99.90
2018-07-28T07:04:57.428Z,99.90
2018-07-28T07:07:25.871Z,99.90
2018-07-28T07:09:54.319Z,99.90
2018-07-28T07:12:22.864Z,99.90
2018-07-28T07:14:51.365Z,99.90
2018-07-28T07:17:19.811Z,99.90
2018-07-28T07:19:48.262Z,99.90
2018-07-28T07:22:16.783Z,99.90
2018-07-28T07:24:45.293Z,99.90
2018-07-28T07:27:13.751Z,99.90
2018-07-28T07:29:42.226Z,99.90
2018-07-28T07:32:10.673Z,99.90
2018-07-28T07:34:39.113Z,99.90
2018-07-28T07:37:07.613Z,99.90
2018-07-28T07:39:36.198Z,99.90
2018-07-28T07:42:04.748Z,99.90
2018-07-28T07:44:33.242Z,99.90
2018-07-28T07:47:01.847Z,99.90
2018-07-28T07:49:30.296Z,99.90
2018-07-28T07:51:58.743Z,99.90
2018-07-28T07:54:27.191Z,99.90
2018-07-28T07:56:55.695Z,99.90
2018-07-28T07:59:24.182Z,99.90
2018-07-28T08:01:52.614Z,99.90
2018-07-28T08:04:21.169Z,99.90
2018-07-28T08:06:49.879Z,99.90
2018-07-28T08:11:46.604Z,99.90
2018-07-28T08:14:15.053Z,99.90
2018-07-28T08:16:43.486Z,99.90
2018-07-28T08:19:11.951Z,99.90
2018-07-28T08:21:40.429Z,99.90
2018-07-28T08:24:09.068Z,99.90
2018-07-28T08:26:37.518Z,99.90
2018-07-28T08:29:05.936Z,99.90
2018-07-28T08:31:34.374Z,99.90
2018-07-28T08:34:02.837Z,99.90
2018-07-28T08:36:32.730Z,99.90
2018-07-28T08:39:01.164Z,99.90
2018-07-28T08:41:29.708Z,99.90
2018-07-28T08:43:58.159Z,99.90
2018-07-28T08:46:26.639Z,99.90
2018-07-28T08:48:55.104Z,99.90
2018-07-28T08:51:23.486Z,99.90
2018-07-28T08:53:51.954Z,99.90
2018-07-28T08:56:20.393Z,99.90
2018-07-28T08:58:48.873Z,99.90
2018-07-28T09:01:17.436Z,99.90
2018-07-28T09:03:45.930Z,99.90
2018-07-28T09:06:14.371Z,99.90
2018-07-28T09:08:42.894Z,99.90
2018-07-28T09:11:11.339Z,99.90
2018-07-28T09:13:40.663Z,99.90
2018-07-28T09:16:09.077Z,99.90
2018-07-28T09:18:37.835Z,99.90
2018-07-28T09:21:06.462Z,99.90
2018-07-28T09:23:34.963Z,99.90
2018-07-28T09:26:03.427Z,99.90
2018-07-28T09:28:31.896Z,99.90
2018-07-28T09:31:00.345Z,99.90
2018-07-28T09:33:28.894Z,99.90
2018-07-28T09:35:57.317Z,99.90
2018-07-28T09:38:25.736Z,99.90
2018-07-28T09:40:54.218Z,99.90
2018-07-28T09:43:23.015Z,99.90
2018-07-28T09:45:51.478Z,99.90
2018-07-28T09:48:19.893Z,99.90
2018-07-28T09:50:48.419Z,99.90
2018-07-28T09:53:16.941Z,99.90
2018-07-28T09:55:45.455Z,99.90
2018-07-28T09:58:14.727Z,99.90
2018-07-28T10:00:48.642Z,99.90
2018-07-28T10:03:17.299Z,99.90
2018-07-28T10:05:46.019Z,99.90
2018-07-28T10:08:14.531Z,99.90
2018-07-28T10:10:42.988Z,99.90
2018-07-28T10:13:11.532Z,99.90
2018-07-28T10:15:40.034Z,99.90
2018-07-28T10:18:08.621Z,99.90
2018-07-28T10:23:05.491Z,99.90
2018-07-28T10:25:33.925Z,99.90
2018-07-28T10:28:02.475Z,99.90
2018-07-28T10:30:30.988Z,99.90
2018-07-28T10:32:59.547Z,99.90
2018-07-28T10:35:27.963Z,99.90
2018-07-28T10:37:56.483Z,99.90
2018-07-28T10:40:24.888Z,99.90
2018-07-28T10:42:53.420Z,99.90
2018-07-28T10:45:21.880Z,99.90
2018-07-28T10:47:50.338Z,99.90
2018-07-28T10:50:18.754Z,99.90
2018-07-28T10:55:15.452Z,99.90
2018-07-28T10:57:44.000Z,99.90
2018-07-28T11:00:12.706Z,99.90
2018-07-28T11:02:41.162Z,99.90
2018-07-28T11:05:09.645Z,99.90
2018-07-28T11:07:38.118Z,99.90
2018-07-28T11:10:08.028Z,99.90
2018-07-28T11:12:36.504Z,99.70
2018-07-28T11:15:06.412Z,98.20
2018-07-28T11:17:34.840Z,98.00
2018-07-28T11:20:03.317Z,97.30
2018-07-28T11:22:31.757Z,97.70
2018-07-28T11:25:00.215Z,97.40
2018-07-28T11:27:28.760Z,96.60
2018-07-28T11:29:57.251Z,96.70
2018-07-28T11:32:36.989Z,96.60
2018-07-28T11:35:16.559Z,97.70
2018-07-28T11:38:01.954Z,98.40
2018-07-28T11:40:43.240Z,98.30
2018-07-28T11:43:23.087Z,99.40
2018-07-28T11:45:51.569Z,98.00
2018-07-28T11:48:20.072Z,98.20
2018-07-28T11:50:48.664Z,98.80
2018-07-28T11:53:17.219Z,98.90
2018-07-28T11:55:45.732Z,98.60
2018-07-28T11:58:14.212Z,99.20
2018-07-28T12:00:42.648Z,98.80
2018-07-28T12:03:11.125Z,98.80
2018-07-28T12:05:39.543Z,99.00
2018-07-28T12:08:07.992Z,98.30
2018-07-28T12:10:36.851Z,98.30
2018-07-28T12:13:05.292Z,97.20
2018-07-28T12:15:33.764Z,97.80
2018-07-28T12:18:02.210Z,96.50
2018-07-28T12:20:30.647Z,95.80
2018-07-28T12:22:59.155Z,95.30
2018-07-28T12:25:27.627Z,94.80
2018-07-28T12:27:56.087Z,93.70
2018-07-28T12:30:24.516Z,93.40
2018-07-28T12:32:52.963Z,93.30
2018-07-28T12:35:21.434Z,93.70
2018-07-28T12:37:50.010Z,92.60
2018-07-28T12:40:18.566Z,93.50
2018-07-28T12:42:47.021Z,94.20
2018-07-28T12:45:15.492Z,94.20
2018-07-28T12:47:43.918Z,94.60
2018-07-28T12:50:12.620Z,95.10
2018-07-28T12:52:41.055Z,95.10
2018-07-28T12:55:09.377Z,95.50
2018-07-28T12:57:37.851Z,95.10
2018-07-28T13:00:06.517Z,95.10
2018-07-28T13:02:35.032Z,98.20
2018-07-28T13:05:03.571Z,99.90
2018-07-28T13:07:32.139Z,99.90
2018-07-28T13:10:00.620Z,99.90
2018-07-28T13:12:29.171Z,99.90
2018-07-28T13:14:57.609Z,99.90
2018-07-28T13:17:26.185Z,99.90
2018-07-28T13:19:55.151Z,99.90
2018-07-28T13:22:23.883Z,99.90
2018-07-28T13:24:52.468Z,99.90
2018-07-28T13:27:20.942Z,99.90
2018-07-28T13:29:49.448Z,99.90
2018-07-28T13:32:17.924Z,99.90
2018-07-28T13:34:46.456Z,99.90
2018-07-28T13:37:15.002Z,99.90
2018-07-28T13:39:43.647Z,99.90
2018-07-28T13:42:12.201Z,99.90
2018-07-28T13:44:40.611Z,99.90
2018-07-28T13:47:09.099Z,99.90
2018-07-28T13:49:37.555Z,99.90
2018-07-28T13:52:06.219Z,99.90
2018-07-28T13:54:34.700Z,99.90
2018-07-28T13:57:03.228Z,99.90
2018-07-28T13:59:31.686Z,99.90
2018-07-28T14:02:00.184Z,99.90
2018-07-28T14:04:28.726Z,99.90
2018-07-28T14:06:57.200Z,99.90
2018-07-28T14:09:25.713Z,99.90
2018-07-28T14:11:54.176Z,99.90
2018-07-28T14:14:22.659Z,99.90
2018-07-28T14:16:51.128Z,99.90
2018-07-28T14:19:19.742Z,99.90
2018-07-28T14:21:48.227Z,99.90
2018-07-28T14:24:16.900Z,99.90
2018-07-28T14:26:45.364Z,99.90
2018-07-28T14:29:13.933Z,99.90
2018-07-28T14:31:42.372Z,99.90
2018-07-28T14:34:10.932Z,99.90
2018-07-28T14:36:39.398Z,99.90
2018-07-28T14:39:09.199Z,99.90
2018-07-28T14:41:38.206Z,99.90
2018-07-28T14:44:06.675Z,99.90
2018-07-28T14:46:35.112Z,99.90
2018-07-28T14:49:03.710Z,99.90
2018-07-28T14:51:32.151Z,99.90
2018-07-28T14:54:00.689Z,99.90
2018-07-28T14:56:29.147Z,99.90
2018-07-28T14:58:57.604Z,99.90
2018-07-28T15:03:54.726Z,99.90
2018-07-28T15:06:23.439Z,99.90
2018-07-28T15:11:20.033Z,99.90
2018-07-28T15:13:48.541Z,99.90
2018-07-28T15:16:17.012Z,99.90
2018-07-28T15:18:45.627Z,99.90
2018-07-28T15:21:14.064Z,99.90
2018-07-28T15:23:42.531Z,99.90
2018-07-28T15:26:11.256Z,99.90
2018-07-28T15:28:39.730Z,99.90
2018-07-28T15:31:08.172Z,99.90
2018-07-28T15:33:36.823Z,99.90
2018-07-28T15:36:05.596Z,99.90
2018-07-28T15:38:34.028Z,99.90
2018-07-28T15:41:02.523Z,99.90
2018-07-28T15:43:30.956Z,99.90
2018-07-28T15:45:59.470Z,99.90
2018-07-28T15:48:27.912Z,99.90
2018-07-28T15:50:56.385Z,99.90
2018-07-28T15:53:24.929Z,99.90
2018-07-28T15:55:53.400Z,99.90
2018-07-28T15:58:21.927Z,99.90
2018-07-28T16:00:50.580Z,99.90
2018-07-28T16:03:19.113Z,99.90
2018-07-28T16:05:47.583Z,99.90
2018-07-28T16:08:16.169Z,99.90
2018-07-28T16:10:45.084Z,99.90
2018-07-28T16:13:13.540Z,99.90
2018-07-28T16:15:41.993Z,99.90
2018-07-28T16:18:10.488Z,99.90
2018-07-28T16:20:38.941Z,99.90
2018-07-28T16:23:10.708Z,99.90
2018-07-28T16:25:39.221Z,99.90
2018-07-28T16:28:07.866Z,99.90
2018-07-28T16:30:36.300Z,99.90
2018-07-28T16:33:04.762Z,99.90
2018-07-28T16:35:33.235Z,99.90
2018-07-28T16:38:01.821Z,99.90
2018-07-28T16:40:30.340Z,99.90
2018-07-28T16:42:58.800Z,99.90
2018-07-28T16:45:28.214Z,99.90
2018-07-28T16:47:56.643Z,99.90
2018-07-28T16:50:25.187Z,99.90
2018-07-28T16:52:53.678Z,99.90
2018-07-28T16:55:22.145Z,99.90
2018-07-28T16:57:50.636Z,99.90
2018-07-28T17:00:19.326Z,99.90
2018-07-28T17:02:47.767Z,99.90
2018-07-28T17:05:16.388Z,99.90
2018-07-28T17:07:44.932Z,99.90
2018-07-28T17:10:13.452Z,99.90
2018-07-28T17:12:41.921Z,99.90
2018-07-28T17:15:11.225Z,99.90
2018-07-28T17:17:39.811Z,99.90
2018-07-28T17:20:08.906Z,99.90
2018-07-28T17:22:37.445Z,99.90
2018-07-28T17:25:05.893Z,99.90
2018-07-28T17:27:34.683Z,99.90
2018-07-28T17:30:03.131Z,99.90
2018-07-28T17:32:31.580Z,99.90
2018-07-28T17:34:59.996Z,99.90
2018-07-28T17:37:28.693Z,99.90
2018-07-28T17:39:57.382Z,99.90
2018-07-28T17:42:25.895Z,99.90
2018-07-28T17:44:54.458Z,99.90
2018-07-28T17:47:22.958Z,99.90
2018-07-28T17:49:51.512Z,99.90
2018-07-28T17:52:20.039Z,99.90
2018-07-28T17:54:48.503Z,99.90
2018-07-28T17:57:16.993Z,99.90
2018-07-28T17:59:45.584Z,99.90
2018-07-28T18:02:14.095Z,99.90
2018-07-28T18:04:42.629Z,99.90
2018-07-28T18:07:11.141Z,99.90
2018-07-28T18:09:39.644Z,99.90
2018-07-28T18:14:36.231Z,99.90
2018-07-28T18:17:04.761Z,99.90
2018-07-28T18:19:33.308Z,99.90
2018-07-28T18:22:01.745Z,99.90
2018-07-28T18:26:58.568Z,99.90
2018-07-28T18:29:27.011Z,99.90
2018-07-28T18:31:55.472Z,99.90
2018-07-28T18:34:24.072Z,99.90
2018-07-28T18:36:52.526Z,99.90
2018-07-28T18:39:20.992Z,99.90
2018-07-28T18:41:49.535Z,99.90
2018-07-28T18:44:18.063Z,99.90
2018-07-28T18:46:46.478Z,99.90
2018-07-28T18:49:14.993Z,99.90
2018-07-28T18:51:43.540Z,99.90
2018-07-28T18:54:11.999Z,99.90
2018-07-28T18:56:40.491Z,99.90
2018-07-28T18:59:09.160Z,99.90
2018-07-28T19:01:37.682Z,99.90
2018-07-28T19:04:06.520Z,99.90
2018-07-28T19:06:34.960Z,99.90
2018-07-28T19:09:08.777Z,99.90
2018-07-28T19:11:37.238Z,99.90
2018-07-28T19:14:11.087Z,99.90
2018-07-28T19:19:13.885Z,99.90
2018-07-28T19:21:43.239Z,99.90
2018-07-28T19:24:11.711Z,99.90
2018-07-28T19:26:40.137Z,99.90
2018-07-28T19:29:13.979Z,99.90
2018-07-28T19:31:42.504Z,99.90
2018-07-28T19:34:10.967Z,99.90
2018-07-28T19:36:44.847Z,99.90
2018-07-28T19:39:13.336Z,99.90
2018-07-28T19:41:47.288Z,99.90
2018-07-28T19:44:15.735Z,99.90
2018-07-28T19:46:44.206Z,99.90
2018-07-28T19:49:12.672Z,99.90
2018-07-28T19:51:41.309Z,99.90
2018-07-28T19:54:09.798Z,99.90
2018-07-28T19:56:38.329Z,99.90
2018-07-28T19:59:06.768Z,99.90
2018-07-28T20:01:35.265Z,99.90
2018-07-28T20:04:03.786Z,99.90
2018-07-28T20:06:32.508Z,99.90
2018-07-28T20:09:01.029Z,99.90
2018-07-28T20:11:29.596Z,99.90
2018-07-28T20:13:58.098Z,99.90
2018-07-28T20:16:26.530Z,99.90
2018-07-28T20:18:55.115Z,99.90
2018-07-28T20:21:23.618Z,99.90
2018-07-28T20:23:52.083Z,99.90
2018-07-28T20:26:20.624Z,99.90
2018-07-28T20:28:49.231Z,99.90
2018-07-28T20:33:45.841Z,99.90
2018-07-28T20:36:14.332Z,99.90
2018-07-28T20:38:42.931Z,99.90
2018-07-28T20:41:11.429Z,99.90
2018-07-28T20:46:08.104Z,99.90
2018-07-28T20:48:36.578Z,99.90
2018-07-28T20:51:05.040Z,99.90
2018-07-28T20:53:33.597Z,99.90
2018-07-28T20:56:05.973Z,99.90
2018-07-28T20:58:34.984Z,99.90
2018-07-28T21:01:04.085Z,99.90
2018-07-28T21:03:32.594Z,99.90
2018-07-28T21:06:01.048Z,99.90
2018-07-28T21:08:29.904Z,99.90
2018-07-28T21:10:58.757Z,99.90
2018-07-28T21:13:27.261Z,99.90
2018-07-28T21:15:56.220Z,99.90
2018-07-28T21:18:25.989Z,99.90
2018-07-28T21:20:54.548Z,99.90
2018-07-28T21:23:23.135Z,99.90
2018-07-28T21:25:51.612Z,99.90
2018-07-28T21:28:20.048Z,99.90
2018-07-28T21:30:48.579Z,99.90
2018-07-28T21:33:17.168Z,99.90
2018-07-28T21:35:45.716Z,99.90
2018-07-28T21:38:14.320Z,99.90
2018-07-28T21:40:42.919Z,99.90
2018-07-28T21:43:11.540Z,99.90
2018-07-28T21:45:40.300Z,99.90
2018-07-28T21:48:08.840Z,99.90
2018-07-28T21:50:37.333Z,99.90
2018-07-28T21:53:06.245Z,99.90
2018-07-28T21:55:34.679Z,99.90
2018-07-28T21:58:03.409Z,99.90
2018-07-28T22:01:38.464Z,99.90
2018-07-28T22:04:06.967Z,99.90
2018-07-28T22:06:35.566Z,99.90
2018-07-28T22:09:05.199Z,99.90
2018-07-28T22:11:33.724Z,99.90
2018-07-28T22:14:02.252Z,99.90
2018-07-28T22:16:30.799Z,99.90
2018-07-28T22:18:59.396Z,99.90
2018-07-28T22:21:27.886Z,99.90
2018-07-28T22:23:56.430Z,99.90
2018-07-28T22:26:24.991Z,99.90
2018-07-28T22:28:53.464Z,99.90
2018-07-28T22:31:22.081Z,99.90
2018-07-28T22:33:50.518Z,99.90
2018-07-28T22:36:18.985Z,99.90
2018-07-28T22:38:47.439Z,99.90
2018-07-28T22:41:15.865Z,99.90
2018-07-28T22:43:44.320Z,99.90
2018-07-28T22:46:12.795Z,99.90
2018-07-28T22:48:41.293Z,99.90
2018-07-28T22:51:09.717Z,99.90
2018-07-28T22:53:38.198Z,99.90
2018-07-28T22:56:06.647Z,99.90
2018-07-28T23:01:03.240Z,99.90
2018-07-28T23:03:31.772Z,99.90
2018-07-28T23:06:00.203Z,99.90
2018-07-28T23:08:28.632Z,99.90
2018-07-28T23:10:57.196Z,99.90
2018-07-28T23:13:25.615Z,99.90
2018-07-28T23:15:54.058Z,99.90
2018-07-28T23:18:22.728Z,99.90
2018-07-28T23:20:51.171Z,99.90
2018-07-28T23:23:19.594Z,99.90
2018-07-28T23:25:48.062Z,99.90
2018-07-28T23:28:16.540Z,99.90
2018-07-28T23:30:44.983Z,99.90
2018-07-28T23:33:13.497Z,99.90
2018-07-28T23:35:41.988Z,99.90
2018-07-28T23:38:10.418Z,99.90
2018-07-28T23:40:38.887Z,99.90
2018-07-28T23:43:07.574Z,99.90
2018-07-28T23:45:36.112Z,99.90
2018-07-28T23:48:04.564Z,99.90
2018-07-28T23:50:33.018Z,99.90
2018-07-28T23:53:01.468Z,99.90
2018-07-28T23:55:30.031Z,99.90
2018-07-28T23:57:58.627Z,99.90
